Time;durP1;ratioP1;P1;durP2;ratioP2;P2;SDS_P1;SDS_P2;PMS_P1;PMS_P2;Temp;Humidity;BMP_temperature;BMP_pressure;BME280_temperature;BME280_humidity;BME280_pressure;Samples;Min_cycle;Max_cycle;Signal;HPM_P1;HPM_P2
2023/01/27 00:00:06;;;;;;;17.02;9.90;;;;;;;;;;4972490;28;20113;-67
2023/01/27 00:02:32;;;;;;;17.58;9.63;;;;;;;;;;4972165;28;20047;-67
2023/01/27 00:04:58;;;;;;;16.40;10.23;;;;;;;;;;4972136;28;20046;-67
2023/01/27 00:07:24;;;;;;;19.67;11.23;;;;;;;;;;4972229;28;20098;-67
2023/01/27 00:09:50;;;;;;;21.88;10.43;;;;;;;;;;4971805;28;20393;-67
2023/01/27 00:15:03;;;;;;;22.98;10.27;;;;;;;;;;4972261;28;20042;-67
2023/01/27 00:17:29;;;;;;;21.40;10.32;;;;;;;;;;4951357;29;20043;-67
2023/01/27 00:19:55;;;;;;;14.77;10.15;;;;;;;;;;4955748;28;20055;-67
2023/01/27 00:25:05;;;;;;;18.50;10.38;;;;;;;;;;4971420;28;20043;-67
2023/01/27 00:27:31;;;;;;;15.15;9.95;;;;;;;;;;4972199;28;20093;-67
2023/01/27 00:29:57;;;;;;;16.25;10.20;;;;;;;;;;4952851;29;20051;-67
2023/01/27 00:35:08;;;;;;;16.65;9.77;;;;;;;;;;4971667;28;20039;-67
2023/01/27 00:37:34;;;;;;;17.30;9.52;;;;;;;;;;4971659;28;20448;-67
2023/01/27 00:40:00;;;;;;;14.35;9.75;;;;;;;;;;4971288;28;20046;-67
2023/01/27 00:42:26;;;;;;;15.93;9.95;;;;;;;;;;4971460;28;20113;-67
2023/01/27 00:47:38;;;;;;;16.05;10.40;;;;;;;;;;4971173;28;20397;-67
2023/01/27 00:50:04;;;;;;;16.88;10.00;;;;;;;;;;4971592;28;20129;-67
2023/01/27 00:52:30;;;;;;;14.75;10.45;;;;;;;;;;4971266;28;20359;-67
2023/01/27 00:54:57;;;;;;;16.05;9.68;;;;;;;;;;4971051;28;20046;-67
2023/01/27 00:57:23;;;;;;;15.02;8.60;;;;;;;;;;4971475;28;20058;-67
2023/01/27 00:59:49;;;;;;;11.35;7.78;;;;;;;;;;4971389;28;20049;-67
2023/01/27 01:02:15;;;;;;;12.15;6.97;;;;;;;;;;4971258;28;20446;-67
2023/01/27 01:04:41;;;;;;;11.18;6.93;;;;;;;;;;4970735;28;20048;-67
2023/01/27 01:07:07;;;;;;;13.50;7.22;;;;;;;;;;4971329;28;20082;-67
2023/01/27 01:09:33;;;;;;;11.02;7.65;;;;;;;;;;4960497;28;20059;-67
2023/01/27 01:11:59;;;;;;;11.05;7.30;;;;;;;;;;4951582;28;20054;-67
2023/01/27 01:14:25;;;;;;;12.25;7.35;;;;;;;;;;4951592;29;20126;-67
2023/01/27 01:16:51;;;;;;;12.98;6.88;;;;;;;;;;4960715;28;20043;-67
2023/01/27 01:19:17;;;;;;;9.85;6.57;;;;;;;;;;4971129;28;20063;-67
2023/01/27 01:21:43;;;;;;;10.40;7.10;;;;;;;;;;4971045;28;20055;-67
2023/01/27 01:24:09;;;;;;;11.00;6.85;;;;;;;;;;4970115;28;20097;-67
2023/01/27 01:26:35;;;;;;;9.00;5.72;;;;;;;;;;4958202;28;20046;-67
2023/01/27 01:29:01;;;;;;;8.85;6.45;;;;;;;;;;4961709;28;20121;-67
2023/01/27 01:31:27;;;;;;;10.50;6.40;;;;;;;;;;4970216;28;20058;-67
2023/01/27 01:33:53;;;;;;;8.82;6.05;;;;;;;;;;4970551;28;20042;-67
2023/01/27 01:36:20;;;;;;;9.98;6.13;;;;;;;;;;4970670;28;20125;-67
2023/01/27 01:38:47;;;;;;;10.43;5.38;;;;;;;;;;4970424;28;20098;-67
2023/01/27 01:41:18;;;;;;;11.02;6.05;;;;;;;;;;4953053;28;20074;-67
2023/01/27 01:43:44;;;;;;;8.85;5.82;;;;;;;;;;4971049;28;20117;-67
2023/01/27 01:46:11;;;;;;;10.32;6.40;;;;;;;;;;4969889;28;20050;-67
2023/01/27 01:48:41;;;;;;;7.85;6.30;;;;;;;;;;4970953;28;20039;-67
2023/01/27 01:51:10;;;;;;;9.95;6.15;;;;;;;;;;4970547;28;20066;-67
2023/01/27 01:53:40;;;;;;;11.77;7.38;;;;;;;;;;4970323;28;20043;-67
2023/01/27 01:56:09;;;;;;;9.95;6.40;;;;;;;;;;4970549;28;20050;-67
2023/01/27 01:58:36;;;;;;;11.55;7.10;;;;;;;;;;4970939;28;20042;-67
2023/01/27 02:01:03;;;;;;;9.60;7.18;;;;;;;;;;4970246;28;20377;-67
2023/01/27 02:03:29;;;;;;;11.00;7.80;;;;;;;;;;4970791;28;20043;-67
2023/01/27 02:05:56;;;;;;;13.90;7.75;;;;;;;;;;4970150;28;20054;-67
2023/01/27 02:08:25;;;;;;;12.15;7.63;;;;;;;;;;4969960;28;20489;-67
2023/01/27 02:10:53;;;;;;;12.45;7.43;;;;;;;;;;4970398;28;20049;-67
2023/01/27 02:13:20;;;;;;;12.55;7.90;;;;;;;;;;4968594;28;20178;-67
2023/01/27 02:15:46;;;;;;;11.13;7.60;;;;;;;;;;4970210;28;20038;-67
2023/01/27 02:18:13;;;;;;;13.07;8.43;;;;;;;;;;4970427;28;20034;-67
2023/01/27 02:20:42;;;;;;;14.50;7.95;;;;;;;;;;4970212;28;20070;-67
2023/01/27 02:23:17;;;;;;;10.60;7.25;;;;;;;;;;4970084;28;20054;-67
2023/01/27 02:25:58;;;;;;;14.80;8.25;;;;;;;;;;4964060;28;20122;-67
2023/01/27 02:28:29;;;;;;;9.75;7.30;;;;;;;;;;4954735;28;20047;-67
2023/01/27 02:30:55;;;;;;;10.98;6.68;;;;;;;;;;4970044;28;20652;-67
2023/01/27 02:33:21;;;;;;;12.43;6.28;;;;;;;;;;4970254;28;20054;-67
2023/01/27 02:35:57;;;;;;;8.98;5.05;;;;;;;;;;4970464;28;20035;-67
2023/01/27 02:38:24;;;;;;;10.27;5.07;;;;;;;;;;4969845;28;20089;-67
2023/01/27 02:40:51;;;;;;;8.18;4.90;;;;;;;;;;4970248;28;20781;-67
2023/01/27 02:43:17;;;;;;;7.78;4.43;;;;;;;;;;4953645;28;20043;-67
2023/01/27 02:45:45;;;;;;;7.10;3.88;;;;;;;;;;4973226;28;20470;-67
2023/01/27 02:48:11;;;;;;;8.93;4.00;;;;;;;;;;4973604;28;20039;-67
2023/01/27 02:50:38;;;;;;;6.63;3.88;;;;;;;;;;4974038;28;20047;-67
2023/01/27 02:53:04;;;;;;;7.38;4.10;;;;;;;;;;4973087;28;20501;-67
2023/01/27 02:55:30;;;;;;;5.00;3.90;;;;;;;;;;4973576;28;20045;-67
2023/01/27 02:57:56;;;;;;;4.82;3.30;;;;;;;;;;4973539;28;20049;-67
2023/01/27 03:00:22;;;;;;;8.82;3.30;;;;;;;;;;4955873;28;20081;-67
2023/01/27 03:02:48;;;;;;;3.80;3.10;;;;;;;;;;4973421;28;20130;-67
2023/01/27 03:05:14;;;;;;;3.13;2.63;;;;;;;;;;4956031;28;20125;-67
2023/01/27 03:07:40;;;;;;;3.63;2.53;;;;;;;;;;4973040;28;20043;-67
2023/01/27 03:10:07;;;;;;;3.58;2.40;;;;;;;;;;4958919;28;20043;-67
2023/01/27 03:12:33;;;;;;;3.95;2.35;;;;;;;;;;4960675;28;20050;-67
2023/01/27 03:20:29;;;;;;;3.22;2.25;;;;;;;;;;4972964;28;20066;-67
2023/01/27 03:22:55;;;;;;;3.28;2.38;;;;;;;;;;4972741;28;20042;-67
2023/01/27 03:25:21;;;;;;;2.00;1.75;;;;;;;;;;4969807;28;20074;-67
2023/01/27 03:27:47;;;;;;;3.70;1.77;;;;;;;;;;4953870;29;20595;-67
2023/01/27 03:30:13;;;;;;;3.58;2.05;;;;;;;;;;4969301;28;20054;-67
2023/01/27 03:32:45;;;;;;;4.35;1.77;;;;;;;;;;4972735;28;20109;-67
2023/01/27 03:35:12;;;;;;;2.30;1.63;;;;;;;;;;4972740;28;20048;-67
2023/01/27 03:48:39;;;;;;;2.05;1.80;;;;;;;;;;4956458;28;20111;-67
2023/01/27 03:51:06;;;;;;;4.55;1.98;;;;;;;;;;4972663;28;20070;-67
2023/01/27 03:53:33;;;;;;;2.60;1.88;;;;;;;;;;4971560;28;20045;-67
2023/01/27 03:55:59;;;;;;;3.47;2.05;;;;;;;;;;4972653;28;20466;-67
2023/01/27 03:58:32;;;;;;;3.17;1.92;;;;;;;;;;4972450;28;20122;-67
2023/01/27 04:00:59;;;;;;;4.78;2.10;;;;;;;;;;4972070;28;20094;-67
2023/01/27 04:09:04;;;;;;;;;;;;;;;;;;4954769;28;20054;-67
2023/01/27 04:14:15;;;;;;;4.45;1.95;;;;;;;;;;4967492;28;20046;-67
2023/01/27 04:16:41;;;;;;;2.30;1.90;;;;;;;;;;4972218;28;20508;-67
2023/01/27 04:19:08;;;;;;;5.10;2.10;;;;;;;;;;4954749;28;20050;-67
2023/01/27 04:21:34;;;;;;;6.95;1.98;;;;;;;;;;4971454;28;20058;-67
2023/01/27 04:24:01;;;;;;;5.18;2.15;;;;;;;;;;4972108;28;20097;-67
2023/01/27 04:26:32;;;;;;;2.15;1.90;;;;;;;;;;4959716;28;20039;-67
2023/01/27 04:28:59;;;;;;;2.88;1.98;;;;;;;;;;4938500;28;20425;-67
2023/01/27 04:31:25;;;;;;;2.58;1.83;;;;;;;;;;4971957;28;20517;-67
2023/01/27 04:33:51;;;;;;;2.50;1.73;;;;;;;;;;4971521;28;20031;-67
2023/01/27 04:36:17;;;;;;;3.63;2.05;;;;;;;;;;4953897;28;20480;-67
2023/01/27 04:38:44;;;;;;;4.20;1.73;;;;;;;;;;4971390;28;20039;-67
2023/01/27 04:41:10;;;;;;;4.60;2.00;;;;;;;;;;4971466;28;20050;-67
2023/01/27 04:43:36;;;;;;;3.45;2.20;;;;;;;;;;4971358;28;20122;-67
2023/01/27 04:46:02;;;;;;;3.25;2.30;;;;;;;;;;4971433;28;20442;-67
2023/01/27 04:48:28;;;;;;;4.70;2.15;;;;;;;;;;4971454;28;20127;-67
2023/01/27 04:50:54;;;;;;;2.47;1.83;;;;;;;;;;4971226;28;20046;-67
2023/01/27 04:53:20;;;;;;;4.30;1.98;;;;;;;;;;4971132;28;20047;-67
2023/01/27 04:55:47;;;;;;;5.82;2.20;;;;;;;;;;4954030;28;20458;-67
2023/01/27 04:58:15;;;;;;;3.30;2.38;;;;;;;;;;4957953;28;20137;-67
2023/01/27 05:00:41;;;;;;;2.63;1.98;;;;;;;;;;4952760;28;20126;-67
2023/01/27 05:03:09;;;;;;;4.60;2.45;;;;;;;;;;4971326;28;20054;-67
2023/01/27 05:05:35;;;;;;;3.88;1.83;;;;;;;;;;4952631;28;20078;-67
2023/01/27 05:08:05;;;;;;;4.32;2.10;;;;;;;;;;4970993;28;20054;-67
2023/01/27 05:10:31;;;;;;;3.08;2.13;;;;;;;;;;4971045;28;20674;-67
2023/01/27 05:12:58;;;;;;;4.63;2.40;;;;;;;;;;4970395;28;20394;-67
2023/01/27 05:15:24;;;;;;;8.98;2.60;;;;;;;;;;4954073;28;20074;-67
2023/01/27 05:17:50;;;;;;;4.03;2.30;;;;;;;;;;4970989;28;20043;-67
2023/01/27 05:20:16;;;;;;;3.65;2.55;;;;;;;;;;4970788;28;20093;-67
2023/01/27 05:22:42;;;;;;;4.70;2.35;;;;;;;;;;4971032;28;20050;-67
2023/01/27 05:25:09;;;;;;;5.20;2.83;;;;;;;;;;4953450;28;20117;-67
2023/01/27 05:27:35;;;;;;;4.15;2.67;;;;;;;;;;4970746;28;20133;-66
2023/01/27 05:30:01;;;;;;;7.80;2.90;;;;;;;;;;4970999;28;20046;-66
2023/01/27 05:32:27;;;;;;;5.15;2.80;;;;;;;;;;4970690;28;20043;-66
2023/01/27 05:34:53;;;;;;;3.38;2.40;;;;;;;;;;4969679;28;20394;-66
2023/01/27 05:37:19;;;;;;;5.90;3.45;;;;;;;;;;4970565;28;20061;-66
2023/01/27 05:39:45;;;;;;;5.13;2.40;;;;;;;;;;4971175;28;20034;-66
2023/01/27 05:42:11;;;;;;;4.20;2.30;;;;;;;;;;4970482;28;20047;-66
2023/01/27 05:44:37;;;;;;;7.95;3.45;;;;;;;;;;4971030;28;20051;-66
2023/01/27 05:47:03;;;;;;;5.28;2.60;;;;;;;;;;4970716;28;20045;-66
2023/01/27 05:49:29;;;;;;;4.40;3.20;;;;;;;;;;4970649;28;20054;-66
2023/01/27 05:51:55;;;;;;;4.28;2.58;;;;;;;;;;4970781;28;20054;-66
2023/01/27 05:54:21;;;;;;;4.00;2.38;;;;;;;;;;4970428;28;20041;-67
2023/01/27 05:56:47;;;;;;;5.57;2.40;;;;;;;;;;4970636;28;20063;-67
2023/01/27 05:59:13;;;;;;;5.75;3.00;;;;;;;;;;4970170;28;20050;-67
2023/01/27 06:01:39;;;;;;;6.03;2.38;;;;;;;;;;4970377;28;20070;-67
2023/01/27 06:04:06;;;;;;;5.03;2.40;;;;;;;;;;4970736;28;20461;-67
2023/01/27 06:06:33;;;;;;;3.25;2.13;;;;;;;;;;4969966;28;20047;-67
2023/01/27 06:08:59;;;;;;;5.50;2.30;;;;;;;;;;4964702;28;20050;-67
2023/01/27 06:11:25;;;;;;;6.18;2.28;;;;;;;;;;4952584;28;20038;-67
2023/01/27 06:13:52;;;;;;;4.97;2.17;;;;;;;;;;4958811;28;20462;-67
2023/01/27 06:16:19;;;;;;;4.80;2.22;;;;;;;;;;4970676;28;20464;-67
2023/01/27 06:18:46;;;;;;;10.15;2.60;;;;;;;;;;4973272;28;20079;-67
2023/01/27 06:21:12;;;;;;;4.32;2.40;;;;;;;;;;4956095;28;20055;-67
2023/01/27 06:23:39;;;;;;;5.63;3.22;;;;;;;;;;4974186;28;20053;-67
2023/01/27 06:26:12;;;;;;;7.40;2.97;;;;;;;;;;4965239;28;20043;-67
2023/01/27 06:28:39;;;;;;;5.05;2.70;;;;;;;;;;4954527;29;20047;-67
2023/01/27 06:31:06;;;;;;;5.07;2.80;;;;;;;;;;4970495;28;20426;-67
2023/01/27 06:33:32;;;;;;;4.05;2.67;;;;;;;;;;4973406;28;20050;-67
2023/01/27 06:36:01;;;;;;;5.30;2.80;;;;;;;;;;4973784;28;20054;-66
2023/01/27 06:38:27;;;;;;;6.78;3.40;;;;;;;;;;4946555;28;20193;-65
2023/01/27 06:40:53;;;;;;;5.65;3.25;;;;;;;;;;4973561;28;20548;-66
2023/01/27 06:43:19;;;;;;;6.32;3.33;;;;;;;;;;4973063;28;20050;-66
2023/01/27 06:45:48;;;;;;;8.20;3.30;;;;;;;;;;4973527;28;20038;-66
2023/01/27 06:48:14;;;;;;;7.75;3.30;;;;;;;;;;4973780;28;20038;-66
2023/01/27 06:50:40;;;;;;;6.20;2.92;;;;;;;;;;4943856;29;20663;-67
2023/01/27 06:53:06;;;;;;;4.68;3.75;;;;;;;;;;4945758;28;20047;-68
2023/01/27 06:55:33;;;;;;;8.52;3.70;;;;;;;;;;4951959;29;20462;-68
2023/01/27 06:58:01;;;;;;;5.00;3.67;;;;;;;;;;4959998;28;20039;-67
2023/01/27 07:00:27;;;;;;;6.38;3.75;;;;;;;;;;4956217;28;20047;-67
2023/01/27 07:02:56;;;;;;;5.10;3.35;;;;;;;;;;4972420;28;20427;-66
2023/01/27 07:05:22;;;;;;;6.78;3.63;;;;;;;;;;4954983;28;20545;-67
2023/01/27 07:07:48;;;;;;;7.25;3.50;;;;;;;;;;4973110;28;20053;-68
2023/01/27 07:10:14;;;;;;;4.47;3.60;;;;;;;;;;4949538;29;20054;-68
2023/01/27 07:12:40;;;;;;;4.72;4.03;;;;;;;;;;4961279;28;20038;-66
2023/01/27 07:15:07;;;;;;;9.75;4.85;;;;;;;;;;4971981;28;20118;-66
2023/01/27 07:17:33;;;;;;;6.43;4.47;;;;;;;;;;4972556;28;20054;-67
2023/01/27 07:20:00;;;;;;;9.15;4.57;;;;;;;;;;4972195;28;20145;-68
2023/01/27 07:22:26;;;;;;;9.70;4.28;;;;;;;;;;4945959;29;20051;-66
2023/01/27 07:24:54;;;;;;;6.70;3.97;;;;;;;;;;4953491;28;20450;-67
2023/01/27 07:27:20;;;;;;;5.78;3.60;;;;;;;;;;4970261;28;20074;-67
2023/01/27 07:29:46;;;;;;;6.55;3.40;;;;;;;;;;4962378;28;20173;-65
2023/01/27 07:32:12;;;;;;;6.05;3.55;;;;;;;;;;4971812;28;20074;-66
2023/01/27 07:34:38;;;;;;;7.75;3.50;;;;;;;;;;4960647;28;20050;-65
2023/01/27 07:37:05;;;;;;;3.80;2.58;;;;;;;;;;4952808;29;20047;-64
2023/01/27 07:39:32;;;;;;;5.30;2.88;;;;;;;;;;4952385;28;20042;-65
2023/01/27 07:42:00;;;;;;;4.50;2.85;;;;;;;;;;4952565;28;20059;-65
2023/01/27 07:44:26;;;;;;;3.03;2.55;;;;;;;;;;4948658;29;20047;-65
2023/01/27 07:46:53;;;;;;;3.42;2.70;;;;;;;;;;4960991;28;20090;-67
2023/01/27 07:49:19;;;;;;;6.57;2.67;;;;;;;;;;4971454;28;20502;-66
2023/01/27 07:51:45;;;;;;;5.90;3.17;;;;;;;;;;4970707;28;20078;-66
2023/01/27 07:54:11;;;;;;;8.65;3.00;;;;;;;;;;4971816;28;20045;-66
2023/01/27 07:56:37;;;;;;;11.10;2.88;;;;;;;;;;4970795;28;20047;-66
2023/01/27 07:59:03;;;;;;;6.32;2.88;;;;;;;;;;4971095;28;20393;-66
2023/01/27 08:01:30;;;;;;;7.22;3.08;;;;;;;;;;4971278;28;20045;-65
2023/01/27 08:03:56;;;;;;;9.15;3.08;;;;;;;;;;4941938;29;20122;-65
2023/01/27 08:06:22;;;;;;;6.38;2.85;;;;;;;;;;4959284;28;20078;-65
2023/01/27 08:08:48;;;;;;;5.07;2.70;;;;;;;;;;4950462;29;20046;-65
2023/01/27 08:11:14;;;;;;;4.00;2.67;;;;;;;;;;4947636;28;20142;-65
2023/01/27 08:13:41;;;;;;;4.85;2.50;;;;;;;;;;4969683;28;20599;-65
2023/01/27 08:16:08;;;;;;;6.47;2.72;;;;;;;;;;4952162;28;20379;-66
2023/01/27 08:18:34;;;;;;;7.35;2.85;;;;;;;;;;4951621;28;20458;-65
2023/01/27 08:21:01;;;;;;;7.90;2.83;;;;;;;;;;4951180;29;20055;-67
2023/01/27 08:23:27;;;;;;;6.07;2.65;;;;;;;;;;4951855;28;20085;-66
2023/01/27 08:25:54;;;;;;;9.35;4.68;;;;;;;;;;4956014;28;20043;-67
2023/01/27 08:28:21;;;;;;;5.35;2.42;;;;;;;;;;4952315;28;20043;-67
2023/01/27 08:30:50;;;;;;;6.72;2.30;;;;;;;;;;4951352;28;20074;-66
2023/01/27 08:33:17;;;;;;;4.68;2.20;;;;;;;;;;4951320;29;20055;-66
2023/01/27 08:35:43;;;;;;;4.82;2.05;;;;;;;;;;4968413;28;20145;-65
2023/01/27 08:38:10;;;;;;;5.00;2.38;;;;;;;;;;4969493;28;20050;-65
2023/01/27 08:40:37;;;;;;;4.72;2.30;;;;;;;;;;4969207;28;20138;-67
2023/01/27 08:43:03;;;;;;;7.20;2.55;;;;;;;;;;4970341;28;20094;-66
2023/01/27 08:45:29;;;;;;;4.65;2.15;;;;;;;;;;4970677;28;20043;-66
2023/01/27 08:47:56;;;;;;;6.95;2.30;;;;;;;;;;4970360;28;20077;-65
2023/01/27 08:50:22;;;;;;;6.05;2.45;;;;;;;;;;4966329;28;20047;-66
2023/01/27 08:52:48;;;;;;;6.03;2.53;;;;;;;;;;4968252;28;20051;-65
2023/01/27 08:55:14;;;;;;;5.30;2.60;;;;;;;;;;4969893;28;20095;-65
2023/01/27 08:57:40;;;;;;;7.45;2.63;;;;;;;;;;4970362;28;20427;-65
2023/01/27 09:00:07;;;;;;;6.60;3.08;;;;;;;;;;4969928;28;20043;-67
2023/01/27 09:02:33;;;;;;;3.97;2.63;;;;;;;;;;4960400;28;21082;-65
2023/01/27 09:04:59;;;;;;;8.93;2.78;;;;;;;;;;4952117;28;20054;-65
2023/01/27 09:07:25;;;;;;;4.03;2.72;;;;;;;;;;4954706;28;20482;-67
2023/01/27 09:09:51;;;;;;;5.80;3.13;;;;;;;;;;4956938;28;20043;-67
2023/01/27 09:12:17;;;;;;;7.28;3.70;;;;;;;;;;4955396;28;20433;-66
2023/01/27 09:14:43;;;;;;;6.00;3.67;;;;;;;;;;4962133;28;20475;-65
2023/01/27 09:17:09;;;;;;;8.13;3.90;;;;;;;;;;4950948;28;20043;-65
2023/01/27 09:19:35;;;;;;;10.10;3.90;;;;;;;;;;4959802;28;20043;-65
2023/01/27 09:22:02;;;;;;;5.88;3.70;;;;;;;;;;4953479;28;20098;-64
2023/01/27 09:24:28;;;;;;;6.15;3.85;;;;;;;;;;4969460;28;20149;-64
2023/01/27 09:26:54;;;;;;;6.65;3.42;;;;;;;;;;4963884;28;20047;-64
2023/01/27 09:29:20;;;;;;;7.82;3.75;;;;;;;;;;4969898;28;20548;-64
2023/01/27 09:31:46;;;;;;;6.28;3.58;;;;;;;;;;4969008;28;20825;-65
2023/01/27 09:34:12;;;;;;;8.13;3.95;;;;;;;;;;4968657;28;20035;-65
2023/01/27 09:36:42;;;;;;;7.47;4.20;;;;;;;;;;4970188;28;20529;-64
2023/01/27 09:39:09;;;;;;;6.80;3.92;;;;;;;;;;4950690;28;20043;-65
2023/01/27 09:41:45;;;;;;;4.68;3.40;;;;;;;;;;4969898;28;20078;-65
2023/01/27 09:44:22;;;;;;;8.82;4.00;;;;;;;;;;4969293;28;20070;-64
2023/01/27 09:46:57;;;;;;;6.80;3.70;;;;;;;;;;4969351;28;20074;-65
2023/01/27 09:49:39;;;;;;;6.03;3.70;;;;;;;;;;4969635;28;20047;-64
2023/01/27 09:52:23;;;;;;;5.38;4.15;;;;;;;;;;4969990;28;20039;-65
2023/01/27 09:54:58;;;;;;;6.40;4.13;;;;;;;;;;4968192;28;21040;-66
2023/01/27 09:57:30;;;;;;;9.77;4.35;;;;;;;;;;4968014;28;20046;-64
2023/01/27 10:00:17;;;;;;;5.60;3.95;;;;;;;;;;4971451;28;20042;-66
2023/01/27 10:03:02;;;;;;;6.00;4.25;;;;;;;;;;4952728;28;20049;-66
2023/01/27 10:05:29;;;;;;;5.97;3.65;;;;;;;;;;4950625;29;20051;-67
2023/01/27 10:07:55;;;;;;;5.38;3.05;;;;;;;;;;4965565;28;20046;-67
2023/01/27 10:10:40;;;;;;;5.18;3.03;;;;;;;;;;4952637;28;20134;-68
2023/01/27 10:13:14;;;;;;;5.00;3.38;;;;;;;;;;4966457;28;20035;-67
2023/01/27 10:15:59;;;;;;;5.60;3.50;;;;;;;;;;4950135;28;20051;-67
2023/01/27 10:18:34;;;;;;;4.05;3.00;;;;;;;;;;4953886;28;20035;-65
2023/01/27 10:21:07;;;;;;;5.28;3.30;;;;;;;;;;4950110;28;20047;-68
2023/01/27 10:23:36;;;;;;;4.88;3.05;;;;;;;;;;4947831;28;20074;-66
2023/01/27 10:26:02;;;;;;;4.90;2.83;;;;;;;;;;4942365;28;20043;-67
2023/01/27 10:28:30;;;;;;;3.30;2.80;;;;;;;;;;4965989;28;20082;-68
2023/01/27 10:31:02;;;;;;;3.35;2.70;;;;;;;;;;4951354;28;20445;-70
2023/01/27 10:33:31;;;;;;;5.68;2.78;;;;;;;;;;4950624;29;20047;-69
2023/01/27 10:36:07;;;;;;;3.60;2.40;;;;;;;;;;4947440;28;20050;-68
2023/01/27 10:39:05;;;;;;;2.55;2.20;;;;;;;;;;4958872;28;20050;-68
2023/01/27 10:41:49;;;;;;;2.55;2.10;;;;;;;;;;4925167;28;20589;-68
2023/01/27 10:44:18;;;;;;;3.85;2.10;;;;;;;;;;4951717;28;20456;-68
2023/01/27 10:46:48;;;;;;;2.97;1.75;;;;;;;;;;4953062;28;20037;-67
2023/01/27 10:49:23;;;;;;;4.20;2.60;;;;;;;;;;4970766;28;20039;-68
2023/01/27 10:51:58;;;;;;;4.22;2.13;;;;;;;;;;4952408;28;20070;-68
2023/01/27 10:54:34;;;;;;;3.88;2.00;;;;;;;;;;4952639;28;20126;-68
2023/01/27 10:57:04;;;;;;;3.55;2.17;;;;;;;;;;4971578;28;20553;-68
2023/01/27 10:59:33;;;;;;;4.22;1.90;;;;;;;;;;4971983;28;20049;-68
2023/01/27 11:02:05;;;;;;;4.30;2.05;;;;;;;;;;4967767;28;20047;-68
2023/01/27 11:04:37;;;;;;;2.78;2.03;;;;;;;;;;4952967;28;20058;-68
2023/01/27 11:07:03;;;;;;;;;;;;;;;;;;4968741;28;20046;-68
2023/01/27 11:09:39;;;;;;;2.58;1.98;;;;;;;;;;4961084;28;20350;-69
2023/01/27 11:12:10;;;;;;;3.30;1.90;;;;;;;;;;4942062;29;20043;-69
2023/01/27 11:14:39;;;;;;;2.85;2.15;;;;;;;;;;4953085;28;20078;-69
2023/01/27 11:17:25;;;;;;;3.70;2.20;;;;;;;;;;4970670;28;20114;-67
2023/01/27 11:20:11;;;;;;;3.53;2.03;;;;;;;;;;4960643;28;20057;-69
2023/01/27 11:22:46;;;;;;;3.03;1.88;;;;;;;;;;4953572;28;20066;-68
2023/01/27 11:25:30;;;;;;;3.67;1.92;;;;;;;;;;4954349;28;20686;-68
2023/01/27 11:28:03;;;;;;;5.47;2.38;;;;;;;;;;4971528;28;20046;-67
2023/01/27 11:30:48;;;;;;;3.28;2.20;;;;;;;;;;4971150;28;20482;-67
2023/01/27 11:33:20;;;;;;;2.97;2.33;;;;;;;;;;4963378;28;20046;-67
2023/01/27 11:35:47;;;;;;;2.92;2.22;;;;;;;;;;4958662;28;20038;-68
2023/01/27 11:38:18;;;;;;;3.85;2.63;;;;;;;;;;4951469;28;20035;-67
2023/01/27 11:40:45;;;;;;;3.05;2.30;;;;;;;;;;4967391;28;20034;-69
2023/01/27 11:43:15;;;;;;;3.40;2.20;;;;;;;;;;4959844;28;20122;-69
2023/01/27 11:45:41;;;;;;;3.38;2.30;;;;;;;;;;4946292;28;20038;-68
2023/01/27 11:48:12;;;;;;;2.22;1.92;;;;;;;;;;4962457;28;20039;-68
2023/01/27 11:50:40;;;;;;;2.70;2.03;;;;;;;;;;4961244;28;20073;-68
2023/01/27 11:53:24;;;;;;;4.97;2.00;;;;;;;;;;4956437;28;20422;-69
2023/01/27 11:56:01;;;;;;;1.90;1.60;;;;;;;;;;4950054;28;20097;-68
2023/01/27 11:58:33;;;;;;;2.85;2.13;;;;;;;;;;4942913;28;20049;-69
2023/01/27 12:01:02;;;;;;;2.25;1.95;;;;;;;;;;4934171;29;20047;-68
2023/01/27 12:04:00;;;;;;;3.30;2.00;;;;;;;;;;4966163;28;20061;-68
2023/01/27 12:06:34;;;;;;;2.50;2.25;;;;;;;;;;4909127;28;20055;-67
2023/01/27 12:09:00;;;;;;;3.65;2.60;;;;;;;;;;4969007;28;20674;-67
2023/01/27 12:11:27;;;;;;;2.58;2.30;;;;;;;;;;4963421;28;20117;-67
2023/01/27 12:13:55;;;;;;;2.53;2.08;;;;;;;;;;4952406;29;20047;-67
2023/01/27 12:16:23;;;;;;;2.63;1.88;;;;;;;;;;4954736;28;20093;-67
2023/01/27 12:18:55;;;;;;;2.95;2.30;;;;;;;;;;4952594;28;20733;-67
2023/01/27 12:21:33;;;;;;;2.20;1.60;;;;;;;;;;4970019;28;20421;-67
2023/01/27 12:23:59;;;;;;;1.73;1.63;;;;;;;;;;4964000;28;20051;-67
2023/01/27 12:26:36;;;;;;;2.63;1.85;;;;;;;;;;4942835;28;20094;-67
2023/01/27 12:29:07;;;;;;;1.55;1.45;;;;;;;;;;4953575;28;20043;-67
2023/01/27 12:31:43;;;;;;;1.95;1.60;;;;;;;;;;4949973;28;20097;-67
2023/01/27 12:34:29;;;;;;;1.65;1.35;;;;;;;;;;4969049;28;20043;-67
2023/01/27 12:36:56;;;;;;;2.85;1.60;;;;;;;;;;4966482;28;20046;-67
2023/01/27 12:39:35;;;;;;;1.63;1.45;;;;;;;;;;4951865;28;20196;-67
2023/01/27 12:42:01;;;;;;;3.10;1.70;;;;;;;;;;4941187;29;20342;-67
2023/01/27 12:44:39;;;;;;;1.60;1.50;;;;;;;;;;4935847;29;20043;-67
2023/01/27 12:47:21;;;;;;;2.63;1.60;;;;;;;;;;4962684;28;20705;-67
2023/01/27 12:49:47;;;;;;;2.70;1.60;;;;;;;;;;4951858;29;20035;-67
2023/01/27 12:52:20;;;;;;;1.50;1.40;;;;;;;;;;4959630;28;20122;-67
2023/01/27 12:54:46;;;;;;;2.20;1.60;;;;;;;;;;4951117;28;20047;-67
2023/01/27 12:57:21;;;;;;;1.70;1.60;;;;;;;;;;4949719;28;20053;-68
2023/01/27 12:59:54;;;;;;;1.48;1.38;;;;;;;;;;4947774;28;20078;-68
2023/01/27 13:02:21;;;;;;;2.05;1.70;;;;;;;;;;4933221;28;20510;-68
2023/01/27 13:04:52;;;;;;;2.65;1.92;;;;;;;;;;4949878;28;20043;-68
2023/01/27 13:07:19;;;;;;;3.28;2.15;;;;;;;;;;4948430;28;20059;-68
2023/01/27 13:09:45;;;;;;;2.85;2.20;;;;;;;;;;4941101;28;20502;-65
2023/01/27 13:12:18;;;;;;;2.28;2.08;;;;;;;;;;4964487;28;20043;-66
2023/01/27 13:14:44;;;;;;;2.72;2.53;;;;;;;;;;4947658;28;20046;-65
2023/01/27 13:17:27;;;;;;;3.80;2.25;;;;;;;;;;4966689;28;20047;-65
2023/01/27 13:19:55;;;;;;;2.00;1.90;;;;;;;;;;4959263;28;20498;-64
2023/01/27 13:22:23;;;;;;;2.22;1.77;;;;;;;;;;4962591;28;20082;-65
2023/01/27 13:24:52;;;;;;;2.75;1.75;;;;;;;;;;4961847;28;20051;-65
2023/01/27 13:27:19;;;;;;;2.95;1.60;;;;;;;;;;4939196;28;20051;-65
2023/01/27 13:29:54;;;;;;;4.60;1.63;;;;;;;;;;4962259;28;20089;-66
2023/01/27 13:32:30;;;;;;;2.20;1.50;;;;;;;;;;4951905;28;20105;-66
2023/01/27 13:35:15;;;;;;;1.42;1.33;;;;;;;;;;4950298;28;20537;-66
2023/01/27 13:38:07;;;;;;;1.92;1.70;;;;;;;;;;4970408;28;20035;-65
2023/01/27 13:40:39;;;;;;;1.60;1.50;;;;;;;;;;4964898;28;20067;-66
2023/01/27 13:43:20;;;;;;;3.10;1.52;;;;;;;;;;4968855;28;20046;-65
2023/01/27 13:45:51;;;;;;;2.83;1.65;;;;;;;;;;4970519;28;20053;-66
2023/01/27 13:48:32;;;;;;;1.70;1.53;;;;;;;;;;4969198;28;20397;-67
2023/01/27 13:50:58;;;;;;;1.50;1.40;;;;;;;;;;4950851;28;20059;-65
2023/01/27 13:53:24;;;;;;;1.38;1.27;;;;;;;;;;4967828;28;20051;-66
2023/01/27 13:56:03;;;;;;;1.33;1.20;;;;;;;;;;4966314;28;20098;-66
2023/01/27 13:58:48;;;;;;;1.30;1.20;;;;;;;;;;4951020;29;20102;-67
2023/01/27 14:01:41;;;;;;;1.40;1.30;;;;;;;;;;4951004;28;20050;-65
2023/01/27 14:04:26;;;;;;;2.03;1.63;;;;;;;;;;4961077;28;20441;-66
2023/01/27 14:07:00;;;;;;;2.72;1.40;;;;;;;;;;4969741;28;20122;-65
2023/01/27 14:09:29;;;;;;;1.40;1.27;;;;;;;;;;4966090;28;20031;-65
2023/01/27 14:12:14;;;;;;;1.30;1.20;;;;;;;;;;4969195;28;20063;-65
2023/01/27 14:14:49;;;;;;;1.98;1.40;;;;;;;;;;4967943;28;20038;-65
2023/01/27 14:17:27;;;;;;;6.93;1.70;;;;;;;;;;4968329;28;20074;-67
2023/01/27 14:19:58;;;;;;;2.30;1.42;;;;;;;;;;4964744;28;20058;-66
2023/01/27 14:22:35;;;;;;;1.50;1.30;;;;;;;;;;4954639;28;20406;-65
2023/01/27 14:25:15;;;;;;;2.38;1.90;;;;;;;;;;4955819;28;20043;-65
2023/01/27 14:27:55;;;;;;;1.40;1.30;;;;;;;;;;4967380;28;20047;-65
2023/01/27 14:30:24;;;;;;;1.40;1.30;;;;;;;;;;4957683;28;20212;-66
2023/01/27 14:33:09;;;;;;;3.50;1.60;;;;;;;;;;4967619;28;20043;-65
2023/01/27 14:35:40;;;;;;;1.85;1.70;;;;;;;;;;4968616;28;20493;-66
2023/01/27 14:38:18;;;;;;;2.38;1.98;;;;;;;;;;4970325;28;20159;-67
2023/01/27 14:40:44;;;;;;;2.08;1.88;;;;;;;;;;4973129;28;20114;-67
2023/01/27 14:43:24;;;;;;;3.75;2.13;;;;;;;;;;4970078;28;20039;-67
2023/01/27 14:46:16;;;;;;;4.80;2.72;;;;;;;;;;4968891;28;20517;-67
2023/01/27 14:48:51;;;;;;;2.80;2.53;;;;;;;;;;4960165;28;20078;-67
2023/01/27 14:51:17;;;;;;;4.85;2.75;;;;;;;;;;4973107;28;20050;-67
2023/01/27 14:53:49;;;;;;;3.45;3.15;;;;;;;;;;4973214;28;20034;-67
2023/01/27 14:56:18;;;;;;;3.80;3.00;;;;;;;;;;4953196;28;20034;-67
2023/01/27 14:58:44;;;;;;;3.20;2.90;;;;;;;;;;4980711;28;20042;-67
2023/01/27 15:01:22;;;;;;;3.22;2.97;;;;;;;;;;4973483;28;20046;-67
2023/01/27 15:04:04;;;;;;;3.78;3.38;;;;;;;;;;4970192;28;20057;-67
2023/01/27 15:06:33;;;;;;;3.30;2.97;;;;;;;;;;4966780;28;20050;-67
2023/01/27 15:09:05;;;;;;;3.78;2.92;;;;;;;;;;4973284;28;20051;-67
2023/01/27 15:11:49;;;;;;;4.03;2.90;;;;;;;;;;4973444;28;20133;-67
2023/01/27 15:14:36;;;;;;;2.92;2.50;;;;;;;;;;4972499;28;20047;-67
2023/01/27 15:17:05;;;;;;;2.53;2.33;;;;;;;;;;4955690;28;20042;-67
2023/01/27 15:19:31;;;;;;;3.05;2.75;;;;;;;;;;4972433;28;20039;-67
2023/01/27 15:22:20;;;;;;;5.03;2.85;;;;;;;;;;4973266;28;20050;-67
2023/01/27 15:24:56;;;;;;;2.92;2.22;;;;;;;;;;4927701;28;20086;-67
2023/01/27 15:27:22;;;;;;;2.22;2.03;;;;;;;;;;4955415;28;20046;-67
2023/01/27 15:29:49;;;;;;;2.30;2.10;;;;;;;;;;4972872;28;20053;-67